createdAt,value
2022-12-25T00:00:45.275Z,11.57
2022-12-25T00:03:17.701Z,13.43
2022-12-25T00:05:45.745Z,10.90
2022-12-25T00:08:14.389Z,10.17
2022-12-25T00:10:45.397Z,9.90
2022-12-25T00:13:15.149Z,12.23
2022-12-25T00:15:45.437Z,11.80
2022-12-25T00:18:13.912Z,9.37
2022-12-25T00:20:42.500Z,11.93
2022-12-25T00:23:10.575Z,10.23
2022-12-25T00:25:40.694Z,9.93
2022-12-25T00:28:09.483Z,10.57
2022-12-25T00:30:41.145Z,9.93
2022-12-25T00:33:09.691Z,10.50
2022-12-25T00:35:38.103Z,11.17
2022-12-25T00:38:06.642Z,11.00
2022-12-25T00:40:35.064Z,10.73
2022-12-25T00:43:02.959Z,10.27
2022-12-25T00:45:31.071Z,9.93
2022-12-25T00:48:04.372Z,10.17
2022-12-25T00:50:32.494Z,10.03
2022-12-25T00:53:00.715Z,10.23
2022-12-25T00:55:28.616Z,11.20
2022-12-25T00:57:58.229Z,10.30
2022-12-25T01:00:27.076Z,10.53
2022-12-25T01:02:55.515Z,10.80
2022-12-25T01:05:25.160Z,11.17
2022-12-25T01:07:54.717Z,10.63
2022-12-25T01:10:24.849Z,11.30
2022-12-25T01:12:54.371Z,10.17
2022-12-25T01:15:23.055Z,11.30
2022-12-25T01:17:51.570Z,10.73
2022-12-25T01:20:23.052Z,11.10
2022-12-25T01:22:52.833Z,10.60
2022-12-25T01:25:23.430Z,11.60
2022-12-25T01:27:52.221Z,11.40
2022-12-25T01:30:21.066Z,11.47
2022-12-25T01:32:49.812Z,11.40
2022-12-25T01:35:18.231Z,12.33
2022-12-25T01:37:46.259Z,12.10
2022-12-25T01:40:16.683Z,12.20
2022-12-25T01:42:45.286Z,12.13
2022-12-25T01:45:36.757Z,13.20
2022-12-25T01:48:11.486Z,12.70
2022-12-25T01:50:41.824Z,13.27
2022-12-25T01:53:10.314Z,11.77
2022-12-25T01:55:42.344Z,13.10
2022-12-25T01:58:11.014Z,12.37
2022-12-25T02:00:39.520Z,13.10
2022-12-25T02:03:08.660Z,12.77
2022-12-25T02:05:38.659Z,12.90
2022-12-25T02:08:10.136Z,13.23
2022-12-25T02:10:39.816Z,13.00
2022-12-25T02:13:08.366Z,13.70
2022-12-25T02:15:42.738Z,12.73
2022-12-25T02:18:16.568Z,14.40
2022-12-25T02:20:57.807Z,12.90
2022-12-25T02:23:47.083Z,13.10
2022-12-25T02:26:23.581Z,13.27
2022-12-25T02:28:57.509Z,13.10
2022-12-25T02:31:30.957Z,13.60
2022-12-25T02:34:11.832Z,13.07
2022-12-25T02:36:46.014Z,13.37
2022-12-25T02:39:39.093Z,12.47
2022-12-25T02:42:11.013Z,13.53
2022-12-25T02:45:01.369Z,12.43
2022-12-25T02:47:50.013Z,12.27
2022-12-25T02:50:36.138Z,12.97
2022-12-25T02:53:23.108Z,13.23
2022-12-25T02:56:08.943Z,12.23
2022-12-25T02:58:58.037Z,11.63
2022-12-25T03:01:47.280Z,11.83
2022-12-25T03:04:37.267Z,12.40
2022-12-25T03:07:08.185Z,12.07
2022-12-25T03:09:57.876Z,12.17
2022-12-25T03:12:40.805Z,12.47
2022-12-25T03:15:28.306Z,12.47
2022-12-25T03:18:02.211Z,11.83
2022-12-25T03:20:48.627Z,11.67
2022-12-25T03:23:37.171Z,11.47
2022-12-25T03:26:23.384Z,12.37
2022-12-25T03:28:51.589Z,12.17
2022-12-25T03:31:24.280Z,11.60
2022-12-25T03:34:18.599Z,11.37
2022-12-25T03:37:00.162Z,11.57
2022-12-25T03:39:48.270Z,12.07
2022-12-25T03:42:43.413Z,12.03
2022-12-25T03:45:31.161Z,12.27
2022-12-25T03:48:17.032Z,11.90
2022-12-25T03:51:08.028Z,12.20
2022-12-25T03:53:58.844Z,11.70
2022-12-25T03:56:44.866Z,11.27
2022-12-25T03:59:31.105Z,11.00
2022-12-25T04:02:16.650Z,11.13
2022-12-25T04:05:01.373Z,10.83
2022-12-25T04:07:48.529Z,11.10
2022-12-25T04:10:37.050Z,11.03
2022-12-25T04:13:22.785Z,12.60
2022-12-25T04:16:11.269Z,11.10
2022-12-25T04:18:56.511Z,11.03
2022-12-25T04:21:42.856Z,11.33
2022-12-25T04:24:36.831Z,10.43
2022-12-25T04:27:23.155Z,11.30
2022-12-25T04:30:08.831Z,10.40
2022-12-25T04:32:54.922Z,10.63
2022-12-25T04:35:40.255Z,10.40
2022-12-25T04:38:08.813Z,10.97
2022-12-25T04:40:38.451Z,9.87
2022-12-25T04:43:06.685Z,10.37
2022-12-25T04:45:34.852Z,10.60
2022-12-25T04:48:03.445Z,10.73
2022-12-25T04:50:31.854Z,10.97
2022-12-25T04:53:00.373Z,11.03
2022-12-25T04:55:28.486Z,10.90
2022-12-25T04:57:58.168Z,10.13
2022-12-25T05:00:26.354Z,10.63
2022-12-25T05:02:55.057Z,10.73
2022-12-25T05:05:24.965Z,11.03
2022-12-25T05:07:53.210Z,12.00
2022-12-25T05:10:21.470Z,11.77
2022-12-25T05:12:49.563Z,11.70
2022-12-25T05:15:19.542Z,11.43
2022-12-25T05:17:47.478Z,10.90
2022-12-25T05:20:15.467Z,10.90
2022-12-25T05:22:44.311Z,10.50
2022-12-25T05:25:12.539Z,11.30
2022-12-25T05:27:40.638Z,11.20
2022-12-25T05:30:10.085Z,10.73
2022-12-25T05:32:41.120Z,10.47
2022-12-25T05:35:11.558Z,10.70
2022-12-25T05:37:39.493Z,10.37
2022-12-25T05:40:12.204Z,10.77
2022-12-25T05:42:40.441Z,13.30
2022-12-25T05:45:09.559Z,11.10
2022-12-25T05:47:39.018Z,11.03
2022-12-25T05:50:08.873Z,12.17
2022-12-25T05:52:36.849Z,11.93
2022-12-25T05:55:07.392Z,12.00
2022-12-25T05:57:35.475Z,12.00
2022-12-25T06:00:03.614Z,12.83
2022-12-25T06:02:42.587Z,10.70
2022-12-25T06:05:12.102Z,14.03
2022-12-25T06:07:42.433Z,12.50
2022-12-25T06:10:11.282Z,11.93
2022-12-25T06:12:41.003Z,13.97
2022-12-25T06:15:10.757Z,11.93
2022-12-25T06:17:39.067Z,12.87
2022-12-25T06:20:10.358Z,12.37
2022-12-25T06:22:40.525Z,11.60
2022-12-25T06:25:09.731Z,10.87
2022-12-25T06:27:38.162Z,12.40
2022-12-25T06:30:07.610Z,12.23
2022-12-25T06:32:35.723Z,12.23
2022-12-25T06:35:04.490Z,11.50
2022-12-25T06:37:34.047Z,10.77
2022-12-25T06:40:03.156Z,12.23
2022-12-25T06:42:33.404Z,10.27
2022-12-25T06:45:01.534Z,10.00
2022-12-25T06:47:30.901Z,10.90
2022-12-25T06:49:58.925Z,12.53
2022-12-25T06:52:28.704Z,11.90
2022-12-25T06:54:58.237Z,9.83
2022-12-25T06:57:26.527Z,12.07
2022-12-25T06:59:55.648Z,10.77
2022-12-25T07:02:24.956Z,11.93
2022-12-25T07:04:55.635Z,10.60
2022-12-25T07:07:23.980Z,10.30
2022-12-25T07:09:51.906Z,10.33
2022-12-25T07:12:23.594Z,10.60
2022-12-25T07:14:51.949Z,10.17
2022-12-25T07:17:21.297Z,10.90
2022-12-25T07:19:49.824Z,9.90
2022-12-25T07:22:18.530Z,10.83
2022-12-25T07:24:47.408Z,11.57
2022-12-25T07:27:15.412Z,9.80
2022-12-25T07:29:45.466Z,13.07
2022-12-25T07:32:13.817Z,9.77
2022-12-25T07:34:42.366Z,11.00
2022-12-25T07:37:10.489Z,11.03
2022-12-25T07:39:38.914Z,11.73
2022-12-25T07:42:08.142Z,10.87
2022-12-25T07:44:37.518Z,11.30
2022-12-25T07:47:08.414Z,10.23
2022-12-25T07:49:38.449Z,10.83
2022-12-25T07:52:06.631Z,10.40
2022-12-25T07:54:35.384Z,11.23
2022-12-25T07:57:03.544Z,11.80
2022-12-25T07:59:32.604Z,13.93
2022-12-25T08:02:01.459Z,14.30
2022-12-25T08:04:31.591Z,9.83
2022-12-25T08:07:00.389Z,13.93
2022-12-25T08:09:29.008Z,13.80
2022-12-25T08:11:57.063Z,13.83
2022-12-25T08:14:25.877Z,10.47
2022-12-25T08:16:53.957Z,10.87
2022-12-25T08:19:23.754Z,11.47
2022-12-25T08:21:53.417Z,10.97
2022-12-25T08:24:21.763Z,10.83
2022-12-25T08:26:51.285Z,12.57
2022-12-25T08:29:19.808Z,10.43
2022-12-25T08:31:49.069Z,11.37
2022-12-25T08:34:21.952Z,10.07
2022-12-25T08:36:50.296Z,8.80
2022-12-25T08:39:19.805Z,10.13
2022-12-25T08:41:48.260Z,8.70
2022-12-25T08:44:16.150Z,9.40
2022-12-25T08:46:44.926Z,11.47
2022-12-25T08:49:13.668Z,9.33
2022-12-25T08:51:41.467Z,9.93
2022-12-25T08:54:10.336Z,10.63
2022-12-25T08:56:39.867Z,9.50
2022-12-25T08:59:08.109Z,8.83
2022-12-25T09:01:36.216Z,8.80
2022-12-25T09:04:05.078Z,8.37
2022-12-25T09:06:33.791Z,8.17
2022-12-25T09:09:02.974Z,8.83
2022-12-25T09:11:31.032Z,9.27
2022-12-25T09:14:01.370Z,11.33
2022-12-25T09:16:30.215Z,11.67
2022-12-25T09:18:59.165Z,11.50
2022-12-25T09:21:28.954Z,11.13
2022-12-25T09:23:59.217Z,12.77
2022-12-25T09:26:28.132Z,11.90
2022-12-25T09:28:56.366Z,9.97
2022-12-25T09:31:26.493Z,10.90
2022-12-25T09:33:57.938Z,11.83
2022-12-25T09:36:26.500Z,13.13
2022-12-25T09:38:55.000Z,11.97
2022-12-25T09:41:29.676Z,11.10
2022-12-25T09:44:02.809Z,11.07
2022-12-25T09:46:40.175Z,11.03
2022-12-25T09:49:19.704Z,9.90
2022-12-25T09:51:54.765Z,9.43
2022-12-25T09:54:26.485Z,10.67
2022-12-25T09:56:54.468Z,10.00
2022-12-25T09:59:25.568Z,10.20
2022-12-25T10:02:24.575Z,9.90
2022-12-25T10:05:18.410Z,9.00
2022-12-25T10:07:53.178Z,9.60
2022-12-25T10:10:32.625Z,9.40
2022-12-25T10:13:05.146Z,12.97
2022-12-25T10:15:39.202Z,10.70
2022-12-25T10:18:29.546Z,10.93
2022-12-25T10:20:59.119Z,15.27
2022-12-25T10:23:30.942Z,11.33
2022-12-25T10:25:59.036Z,11.97
2022-12-25T10:28:31.458Z,11.23
2022-12-25T10:31:06.624Z,11.07
2022-12-25T10:33:36.082Z,11.50
2022-12-25T10:36:08.074Z,11.13
2022-12-25T10:38:36.806Z,12.07
2022-12-25T10:41:15.057Z,12.53
2022-12-25T10:43:50.493Z,12.73
2022-12-25T10:46:20.773Z,10.90
2022-12-25T10:48:53.723Z,11.67
2022-12-25T10:51:30.159Z,12.13
2022-12-25T10:54:00.100Z,11.03
2022-12-25T10:56:28.099Z,11.63
2022-12-25T10:59:06.866Z,10.87
2022-12-25T11:01:35.194Z,9.70
2022-12-25T11:04:05.958Z,11.13
2022-12-25T11:06:35.069Z,11.30
2022-12-25T11:09:04.002Z,11.80
2022-12-25T11:11:43.334Z,12.77
2022-12-25T11:14:17.328Z,11.83
2022-12-25T11:16:45.863Z,10.10
2022-12-25T11:19:28.385Z,10.97
2022-12-25T11:22:01.852Z,11.17
2022-12-25T11:24:31.166Z,11.17
2022-12-25T11:27:03.775Z,11.37
2022-12-25T11:29:37.944Z,11.23
2022-12-25T11:32:12.750Z,11.97
2022-12-25T11:34:46.328Z,10.93
2022-12-25T11:37:17.512Z,10.93
2022-12-25T11:39:47.084Z,11.03
2022-12-25T11:42:21.029Z,10.40
2022-12-25T11:44:54.245Z,10.70
2022-12-25T11:47:26.435Z,11.63
2022-12-25T11:50:01.009Z,11.97
2022-12-25T11:52:34.491Z,11.60
2022-12-25T11:55:08.875Z,12.27
2022-12-25T11:57:37.901Z,11.30
2022-12-25T12:00:10.352Z,10.77
2022-12-25T12:02:44.729Z,10.90
2022-12-25T12:05:19.405Z,10.47
2022-12-25T12:07:58.730Z,10.83
2022-12-25T12:10:34.801Z,10.90
2022-12-25T12:13:14.904Z,10.63
2022-12-25T12:15:44.882Z,9.60
2022-12-25T12:18:21.948Z,10.60
2022-12-25T12:21:03.288Z,10.27
2022-12-25T12:23:49.654Z,8.87
2022-12-25T12:26:22.147Z,9.43
2022-12-25T12:28:54.036Z,9.80
2022-12-25T12:31:22.861Z,8.90
2022-12-25T12:33:54.597Z,8.90
2022-12-25T12:36:35.938Z,8.30
2022-12-25T12:39:07.175Z,8.30
2022-12-25T12:41:46.489Z,8.10
2022-12-25T12:44:17.747Z,8.27
2022-12-25T12:46:55.087Z,8.47
2022-12-25T12:49:26.406Z,7.37
2022-12-25T12:52:06.941Z,7.70
2022-12-25T12:54:35.186Z,7.73
2022-12-25T12:57:04.826Z,7.93
2022-12-25T12:59:40.277Z,7.67
2022-12-25T13:02:24.059Z,7.90
2022-12-25T13:05:04.079Z,8.37
2022-12-25T13:07:45.941Z,7.90
2022-12-25T13:10:22.975Z,7.80
2022-12-25T13:12:54.942Z,7.97
2022-12-25T13:15:27.434Z,7.83
2022-12-25T13:17:56.686Z,7.90
2022-12-25T13:20:35.084Z,8.77
2022-12-25T13:23:22.421Z,8.23
2022-12-25T13:25:53.934Z,7.57
2022-12-25T13:28:33.869Z,7.97
2022-12-25T13:31:11.962Z,7.53
2022-12-25T13:33:41.747Z,8.23
2022-12-25T13:36:14.674Z,8.23
2022-12-25T13:38:50.525Z,8.07
2022-12-25T13:41:37.911Z,9.27
2022-12-25T13:44:15.232Z,8.37
2022-12-25T13:46:44.453Z,9.27
2022-12-25T13:49:16.999Z,8.70
2022-12-25T13:51:46.214Z,9.87
2022-12-25T13:54:20.867Z,9.43
2022-12-25T13:56:52.452Z,10.30
2022-12-25T13:59:22.877Z,10.30
2022-12-25T14:01:52.295Z,10.20
2022-12-25T14:04:23.238Z,10.50
2022-12-25T14:06:52.779Z,10.60
2022-12-25T14:09:23.449Z,10.87
2022-12-25T14:11:54.559Z,11.17
2022-12-25T14:14:24.440Z,11.20
2022-12-25T14:16:54.615Z,10.67
2022-12-25T14:19:26.973Z,10.53
2022-12-25T14:21:57.633Z,11.13
2022-12-25T14:24:28.984Z,11.70
2022-12-25T14:27:01.846Z,11.70
2022-12-25T14:29:37.063Z,10.70
2022-12-25T14:32:11.713Z,11.90
2022-12-25T14:34:40.030Z,12.03
2022-12-25T14:37:10.953Z,11.87
2022-12-25T14:39:40.432Z,11.67
2022-12-25T14:42:21.543Z,11.73
2022-12-25T14:45:01.966Z,11.10
2022-12-25T14:47:30.920Z,11.17
2022-12-25T14:50:00.038Z,11.27
2022-12-25T14:52:30.202Z,11.23
2022-12-25T14:55:03.125Z,10.10
2022-12-25T14:57:34.604Z,11.13
2022-12-25T15:00:09.367Z,10.17
2022-12-25T15:02:46.120Z,10.27
2022-12-25T15:05:35.439Z,10.00
2022-12-25T15:08:19.500Z,10.00
2022-12-25T15:11:05.155Z,11.00
2022-12-25T15:13:34.280Z,9.97
2022-12-25T15:16:06.267Z,10.27
2022-12-25T15:18:40.384Z,10.30
2022-12-25T15:21:16.231Z,9.90
2022-12-25T15:23:44.467Z,10.60
2022-12-25T15:26:18.101Z,9.67
2022-12-25T15:28:46.415Z,10.23
2022-12-25T15:31:26.353Z,10.07
2022-12-25T15:33:55.314Z,10.13
2022-12-25T15:36:23.927Z,10.47
2022-12-25T15:38:53.274Z,10.23
2022-12-25T15:41:43.304Z,10.33
2022-12-25T15:44:12.609Z,9.77
2022-12-25T15:46:41.293Z,10.03
2022-12-25T15:49:11.577Z,9.93
2022-12-25T15:51:40.257Z,9.53
2022-12-25T15:54:11.171Z,9.13
2022-12-25T15:56:44.233Z,9.30
2022-12-25T15:59:16.822Z,9.53
2022-12-25T16:01:49.633Z,10.60
2022-12-25T16:04:18.329Z,10.03
2022-12-25T16:06:47.119Z,10.27
2022-12-25T16:09:16.177Z,9.40
2022-12-25T16:11:49.090Z,9.63
2022-12-25T16:14:18.757Z,9.47
2022-12-25T16:16:48.353Z,8.93
2022-12-25T16:19:16.395Z,9.80
2022-12-25T16:21:49.391Z,10.37
2022-12-25T16:24:18.090Z,11.87
2022-12-25T16:26:47.873Z,11.27
2022-12-25T16:29:15.988Z,11.33
2022-12-25T16:31:45.907Z,10.53
2022-12-25T16:34:14.410Z,10.43
2022-12-25T16:36:42.490Z,11.07
2022-12-25T16:39:13.414Z,10.53
2022-12-25T16:41:42.989Z,10.50
2022-12-25T16:44:14.716Z,10.77
2022-12-25T16:46:44.193Z,9.50
2022-12-25T16:49:12.856Z,10.37
2022-12-25T16:51:42.371Z,10.23
2022-12-25T16:54:10.680Z,9.47
2022-12-25T16:56:38.644Z,9.73
2022-12-25T16:59:07.199Z,10.53
2022-12-25T17:01:38.200Z,10.70
2022-12-25T17:04:06.989Z,10.80
2022-12-25T17:06:35.303Z,10.87
2022-12-25T17:09:03.817Z,10.30
2022-12-25T17:11:32.166Z,11.37
2022-12-25T17:14:03.563Z,11.03
2022-12-25T17:16:36.410Z,11.73
2022-12-25T17:19:08.217Z,12.10
2022-12-25T17:21:38.157Z,12.00
2022-12-25T17:24:06.964Z,12.13
2022-12-25T17:26:35.179Z,12.90
2022-12-25T17:29:03.343Z,11.37
2022-12-25T17:31:32.216Z,10.93
2022-12-25T17:34:02.940Z,11.50
2022-12-25T17:36:32.599Z,11.80
2022-12-25T17:39:01.721Z,12.40
2022-12-25T17:41:31.880Z,12.23
2022-12-25T17:44:01.801Z,12.17
2022-12-25T17:46:31.607Z,12.37
2022-12-25T17:49:01.478Z,13.40
2022-12-25T17:51:33.043Z,13.20
2022-12-25T17:54:03.299Z,13.60
2022-12-25T17:56:32.612Z,13.60
2022-12-25T17:59:06.942Z,14.17
2022-12-25T18:01:37.171Z,14.30
2022-12-25T18:04:07.200Z,13.73
2022-12-25T18:06:38.146Z,14.03
2022-12-25T18:09:07.130Z,13.27
2022-12-25T18:11:36.968Z,14.17
2022-12-25T18:14:06.990Z,13.60
2022-12-25T18:16:37.366Z,16.73
2022-12-25T18:19:05.945Z,14.53
2022-12-25T18:21:34.737Z,15.30
2022-12-25T18:24:07.128Z,15.57
2022-12-25T18:26:35.755Z,16.03
2022-12-25T18:29:04.696Z,17.20
2022-12-25T18:31:34.355Z,17.30
2022-12-25T18:34:02.893Z,16.97
2022-12-25T18:36:31.812Z,17.53
2022-12-25T18:39:00.682Z,17.20
2022-12-25T18:41:30.669Z,17.33
2022-12-25T18:44:01.034Z,17.93
2022-12-25T18:46:30.140Z,17.70
2022-12-25T18:49:00.283Z,18.30
2022-12-25T18:51:36.876Z,17.57
2022-12-25T18:54:05.626Z,17.77
2022-12-25T18:56:35.772Z,18.23
2022-12-25T18:59:04.346Z,17.57
2022-12-25T19:01:33.177Z,16.63
2022-12-25T19:04:05.657Z,17.93
2022-12-25T19:06:34.417Z,17.43
2022-12-25T19:09:09.324Z,17.43
2022-12-25T19:11:46.550Z,17.43
2022-12-25T19:14:15.408Z,17.30
2022-12-25T19:16:43.653Z,18.53
2022-12-25T19:19:11.713Z,17.90
2022-12-25T19:21:39.741Z,17.83
2022-12-25T19:24:10.498Z,18.40
2022-12-25T19:26:43.699Z,17.87
2022-12-25T19:29:12.465Z,17.40
2022-12-25T19:31:41.587Z,18.07
2022-12-25T19:34:10.291Z,18.30
2022-12-25T19:36:40.478Z,18.43
2022-12-25T19:39:10.089Z,19.60
2022-12-25T19:41:39.752Z,19.77
2022-12-25T19:44:08.721Z,18.87
2022-12-25T19:46:40.385Z,18.53
2022-12-25T19:49:09.356Z,20.63
2022-12-25T19:51:38.900Z,19.13
2022-12-25T19:54:08.148Z,20.03
2022-12-25T19:56:36.883Z,20.03
2022-12-25T19:59:06.553Z,20.87
2022-12-25T20:01:34.969Z,19.80
2022-12-25T20:04:03.775Z,20.57
2022-12-25T20:06:33.384Z,20.23
2022-12-25T20:09:03.097Z,20.00
2022-12-25T20:11:33.482Z,21.73
2022-12-25T20:14:02.238Z,21.07
2022-12-25T20:16:31.720Z,21.57
2022-12-25T20:19:00.453Z,25.03
2022-12-25T20:21:29.820Z,23.43
2022-12-25T20:23:58.381Z,23.23
2022-12-25T20:26:30.512Z,22.60
2022-12-25T20:28:58.841Z,23.77
2022-12-25T20:31:28.964Z,24.83
2022-12-25T20:33:59.375Z,26.33
2022-12-25T20:36:32.790Z,26.17
2022-12-25T20:39:05.306Z,25.97
2022-12-25T20:41:33.404Z,23.93
2022-12-25T20:44:04.359Z,24.23
2022-12-25T20:46:33.734Z,23.43
2022-12-25T20:49:04.530Z,22.27
2022-12-25T20:51:33.059Z,22.13
2022-12-25T20:54:01.548Z,23.27
2022-12-25T20:56:30.314Z,22.40
2022-12-25T20:58:59.555Z,21.83
2022-12-25T21:01:28.540Z,21.87
2022-12-25T21:03:57.541Z,21.80
2022-12-25T21:06:28.335Z,20.40
2022-12-25T21:08:56.516Z,21.57
2022-12-25T21:11:24.864Z,22.37
2022-12-25T21:13:54.873Z,21.70
2022-12-25T21:16:23.764Z,21.87
2022-12-25T21:18:53.322Z,22.40
2022-12-25T21:21:22.313Z,20.60
2022-12-25T21:23:52.218Z,22.30
2022-12-25T21:26:25.097Z,21.73
2022-12-25T21:28:55.009Z,20.67
2022-12-25T21:31:25.625Z,20.60
2022-12-25T21:33:53.429Z,22.27
2022-12-25T21:36:24.431Z,20.60
2022-12-25T21:39:00.434Z,21.20
2022-12-25T21:41:30.521Z,21.03
2022-12-25T21:43:59.315Z,20.90
2022-12-25T21:46:30.029Z,21.03
2022-12-25T21:48:59.394Z,20.53
2022-12-25T21:51:46.511Z,20.70
2022-12-25T21:54:19.392Z,20.07
2022-12-25T21:56:48.969Z,21.37
2022-12-25T21:59:18.571Z,19.90
2022-12-25T22:01:48.943Z,21.43
2022-12-25T22:04:18.539Z,19.87
2022-12-25T22:07:04.453Z,20.97
2022-12-25T22:09:34.886Z,20.13
2022-12-25T22:12:21.500Z,19.23
2022-12-25T22:14:55.357Z,19.90
2022-12-25T22:17:44.874Z,19.37
2022-12-25T22:20:16.209Z,20.47
2022-12-25T22:22:45.064Z,22.03
2022-12-25T22:25:15.466Z,21.13
2022-12-25T22:27:45.794Z,19.00
2022-12-25T22:30:17.379Z,20.00
2022-12-25T22:32:46.285Z,22.90
2022-12-25T22:35:19.534Z,19.33
2022-12-25T22:37:48.362Z,18.50
2022-12-25T22:40:19.565Z,18.87
2022-12-25T22:42:48.023Z,19.07
2022-12-25T22:45:16.382Z,17.57
2022-12-25T22:47:44.980Z,22.93
2022-12-25T22:50:14.660Z,19.23
2022-12-25T22:52:45.810Z,20.50
2022-12-25T22:55:20.291Z,27.63
2022-12-25T22:57:48.970Z,24.17
2022-12-25T23:00:18.881Z,18.93
2022-12-25T23:02:49.366Z,16.33
2022-12-25T23:05:17.957Z,18.30
2022-12-25T23:07:46.704Z,21.20
2022-12-25T23:10:14.828Z,22.03
2022-12-25T23:13:01.906Z,22.23
2022-12-25T23:15:31.657Z,19.57
2022-12-25T23:18:20.525Z,17.63
2022-12-25T23:21:08.038Z,15.60
2022-12-25T23:23:53.341Z,16.07
2022-12-25T23:26:24.040Z,16.27
2022-12-25T23:29:11.492Z,15.40
2022-12-25T23:31:41.480Z,14.57
2022-12-25T23:34:10.425Z,15.60
2022-12-25T23:36:38.622Z,14.27
2022-12-25T23:39:10.067Z,15.43
2022-12-25T23:41:40.715Z,16.80
2022-12-25T23:44:11.056Z,14.13
2022-12-25T23:46:40.618Z,13.60
2022-12-25T23:49:09.375Z,13.80
2022-12-25T23:51:38.737Z,18.97
2022-12-25T23:54:07.759Z,13.23
2022-12-25T23:56:36.010Z,17.20
2022-12-25T23:59:05.798Z,14.87
